Time,TemperatureF,DewpointF,PressureIn,WindDirection,WindDirectionDegrees,WindSpeedMPH,WindSpeedGustMPH,Humidity,HourlyPrecipIn,Conditions,Clouds,dailyrainin,SoftwareType,DateUTC
2013-05-18 00:02:00,54.0,45.0,-100.00,SE,132,9.0,16.0,72,0.00,,,0.60,,2013-05-18 05:02:00,
2013-05-18 00:12:00,54.0,45.0,-100.00,SE,132,9.0,16.0,72,0.00,,,0.60,,2013-05-18 05:12:00,
2013-05-18 00:22:00,54.0,45.0,-100.00,SE,132,9.0,16.0,72,0.00,,,0.60,,2013-05-18 05:22:00,
2013-05-18 00:52:00,54.0,46.0,-100.00,East,101,3.0,16.0,75,0.00,,,0.60,,2013-05-18 05:52:00,
2013-05-18 01:02:00,54.0,46.0,-100.00,East,101,3.0,16.0,75,0.00,,,0.60,,2013-05-18 06:02:00,
2013-05-18 01:11:00,54.0,46.0,-100.00,East,101,3.0,16.0,75,0.00,,,0.60,,2013-05-18 06:11:00,
2013-05-18 01:22:00,54.0,46.0,-100.00,East,101,3.0,16.0,75,0.00,,,0.60,,2013-05-18 06:22:00,
2013-05-18 01:52:00,52.0,47.0,-100.00,North,1,4.0,6.0,83,0.00,,,0.60,,2013-05-18 06:52:00,
2013-05-18 02:01:00,52.0,47.0,-100.00,North,1,4.0,6.0,83,0.00,,,0.60,,2013-05-18 07:01:00,
2013-05-18 02:12:00,52.0,47.0,-100.00,North,1,4.0,6.0,83,0.00,,,0.60,,2013-05-18 07:12:00,
2013-05-18 02:21:00,52.0,47.0,-100.00,North,1,4.0,6.0,83,0.00,,,0.60,,2013-05-18 07:21:00,
2013-05-18 02:52:00,54.0,46.0,-100.00,ENE,74,2.0,7.0,75,0.00,,,0.60,,2013-05-18 07:52:00,
2013-05-18 03:01:00,54.0,46.0,-100.00,ENE,74,2.0,7.0,75,0.00,,,0.60,,2013-05-18 08:01:00,
2013-05-18 03:11:00,54.0,46.0,-100.00,ENE,74,2.0,7.0,75,0.00,,,0.60,,2013-05-18 08:11:00,
2013-05-18 03:21:00,54.0,46.0,-100.00,ENE,74,2.0,7.0,75,0.00,,,0.60,,2013-05-18 08:21:00,
2013-05-18 03:52:00,54.0,47.0,-100.00,ESE,109,4.0,9.0,76,0.00,,,0.60,,2013-05-18 08:52:00,
2013-05-18 04:02:00,54.0,47.0,-100.00,ESE,109,4.0,9.0,76,0.00,,,0.60,,2013-05-18 09:02:00,
2013-05-18 04:11:00,54.0,47.0,-100.00,ESE,109,4.0,9.0,76,0.00,,,0.60,,2013-05-18 09:11:00,
2013-05-18 04:22:00,54.0,47.0,-100.00,ESE,109,4.0,9.0,76,0.00,,,0.60,,2013-05-18 09:22:00,
2013-05-18 04:53:00,54.0,47.0,-100.00,SE,131,6.0,9.0,76,0.00,,,0.60,,2013-05-18 09:53:00,
2013-05-18 05:03:00,54.0,47.0,-100.00,SE,131,6.0,9.0,76,0.00,,,0.60,,2013-05-18 10:03:00,
2013-05-18 05:12:00,54.0,47.0,-100.00,SE,131,6.0,9.0,76,0.00,,,0.60,,2013-05-18 10:12:00,
2013-05-18 05:22:00,54.0,47.0,-100.00,SE,131,6.0,9.0,76,0.00,,,0.60,,2013-05-18 10:22:00,
2013-05-18 05:53:00,53.0,47.0,-100.00,SE,138,10.0,15.0,79,0.00,,,0.60,,2013-05-18 10:53:00,
2013-05-18 06:03:00,53.0,47.0,-100.00,SE,138,10.0,15.0,79,0.00,,,0.60,,2013-05-18 11:03:00,
2013-05-18 06:12:00,53.0,47.0,-100.00,SE,138,10.0,15.0,79,0.00,,,0.60,,2013-05-18 11:12:00,
2013-05-18 06:22:00,53.0,47.0,-100.00,SE,138,10.0,15.0,79,0.00,,,0.60,,2013-05-18 11:22:00,
2013-05-18 06:52:00,54.0,47.0,-100.00,SE,130,8.0,15.0,77,0.00,,,0.60,,2013-05-18 11:52:00,
2013-05-18 07:02:00,54.0,47.0,-100.00,SE,130,8.0,15.0,77,0.00,,,0.60,,2013-05-18 12:02:00,
2013-05-18 07:12:00,54.0,47.0,-100.00,SE,130,8.0,15.0,77,0.00,,,0.60,,2013-05-18 12:12:00,
2013-05-18 07:23:00,54.0,47.0,-100.00,SE,130,8.0,15.0,77,0.00,,,0.60,,2013-05-18 12:23:00,
2013-05-18 07:52:00,56.0,47.0,-100.00,SE,127,10.0,15.0,71,0.00,,,0.60,,2013-05-18 12:52:00,
2013-05-18 08:01:00,56.0,47.0,-100.00,SE,127,10.0,15.0,71,0.00,,,0.60,,2013-05-18 13:01:00,
2013-05-18 08:11:00,56.0,47.0,-100.00,SE,127,10.0,15.0,71,0.00,,,0.60,,2013-05-18 13:11:00,
2013-05-18 08:21:00,56.0,47.0,-100.00,SE,127,10.0,15.0,71,0.00,,,0.60,,2013-05-18 13:21:00,
2013-05-18 08:53:00,58.0,47.0,-100.00,SE,131,8.0,15.0,68,0.00,,,0.56,,2013-05-18 13:53:00,
2013-05-18 09:03:00,58.0,47.0,-100.00,SE,131,8.0,15.0,68,0.00,,,0.56,,2013-05-18 14:03:00,
2013-05-18 09:12:00,58.0,47.0,-100.00,SE,131,8.0,15.0,68,0.00,,,0.56,,2013-05-18 14:12:00,
2013-05-18 09:22:00,58.0,47.0,-100.00,SE,131,8.0,15.0,68,0.00,,,0.56,,2013-05-18 14:22:00,
2013-05-18 09:54:00,60.0,49.0,-100.00,SE,137,10.0,15.0,66,0.00,,,0.39,,2013-05-18 14:54:00,
2013-05-18 10:03:00,60.0,49.0,-100.00,SE,137,10.0,15.0,66,0.00,,,0.39,,2013-05-18 15:03:00,
2013-05-18 10:13:00,60.0,49.0,-100.00,SE,137,10.0,15.0,66,0.00,,,0.39,,2013-05-18 15:13:00,
2013-05-18 10:23:00,60.0,49.0,-100.00,SE,137,10.0,15.0,66,0.00,,,0.39,,2013-05-18 15:23:00,
2013-05-18 10:53:00,62.0,51.0,-100.00,SE,133,7.0,15.0,67,0.00,,,0.19,,2013-05-18 15:53:00,
2013-05-18 11:03:00,62.0,51.0,-100.00,SE,133,7.0,15.0,67,0.00,,,0.19,,2013-05-18 16:03:00,
2013-05-18 11:13:00,62.0,51.0,-100.00,SE,133,7.0,15.0,67,0.00,,,0.19,,2013-05-18 16:13:00,
2013-05-18 11:22:00,62.0,51.0,-100.00,SE,133,7.0,15.0,67,0.00,,,0.19,,2013-05-18 16:22:00,
2013-05-18 11:52:00,67.0,56.0,-100.00,SE,141,8.0,11.0,68,0.00,,,0.10,,2013-05-18 16:52:00,
2013-05-18 12:02:00,67.0,56.0,-100.00,SE,141,8.0,11.0,68,0.00,,,0.10,,2013-05-18 17:02:00,
2013-05-18 12:12:00,67.0,56.0,-100.00,SE,141,8.0,11.0,68,0.00,,,0.10,,2013-05-18 17:12:00,
2013-05-18 12:22:00,67.0,56.0,-100.00,SE,141,8.0,11.0,68,0.00,,,0.10,,2013-05-18 17:22:00,
2013-05-18 12:52:00,69.0,58.0,-100.00,SE,142,6.0,12.0,68,0.00,,,0.05,,2013-05-18 17:52:00,
2013-05-18 13:01:00,69.0,58.0,-100.00,SE,142,6.0,12.0,68,0.00,,,0.05,,2013-05-18 18:01:00,
2013-05-18 13:12:00,69.0,58.0,-100.00,SE,142,6.0,12.0,68,0.00,,,0.05,,2013-05-18 18:12:00,
2013-05-18 13:21:00,69.0,58.0,-100.00,SE,142,6.0,12.0,68,0.00,,,0.05,,2013-05-18 18:21:00,
2013-05-18 13:52:00,74.0,62.0,-100.00,SE,144,6.0,12.0,66,0.00,,,0.01,,2013-05-18 18:52:00,
2013-05-18 14:02:00,74.0,62.0,-100.00,SE,144,6.0,12.0,66,0.00,,,0.01,,2013-05-18 19:02:00,
2013-05-18 14:12:00,74.0,62.0,-100.00,SE,144,6.0,12.0,66,0.00,,,0.01,,2013-05-18 19:12:00,
2013-05-18 14:22:00,74.0,62.0,-100.00,SE,144,6.0,12.0,66,0.00,,,0.01,,2013-05-18 19:22:00,
2013-05-18 14:52:00,76.0,61.0,-100.00,SE,146,7.0,10.0,59,0.00,,,0.00,,2013-05-18 19:52:00,
2013-05-18 15:02:00,76.0,61.0,-100.00,SE,146,7.0,10.0,59,0.00,,,0.00,,2013-05-18 20:02:00,
2013-05-18 15:11:00,76.0,61.0,-100.00,SE,146,7.0,10.0,59,0.00,,,0.00,,2013-05-18 20:11:00,
2013-05-18 15:22:00,76.0,61.0,-100.00,SE,146,7.0,10.0,59,0.00,,,0.00,,2013-05-18 20:22:00,
2013-05-18 15:52:00,77.0,61.0,-100.00,SE,141,7.0,13.0,57,0.00,,,-99.99,,2013-05-18 20:52:00,
2013-05-18 16:01:00,77.0,61.0,-100.00,SE,141,7.0,13.0,57,0.00,,,-99.99,,2013-05-18 21:01:00,
2013-05-18 16:12:00,77.0,61.0,-100.00,SE,141,7.0,13.0,57,0.00,,,-99.99,,2013-05-18 21:12:00,
2013-05-18 16:21:00,77.0,61.0,-100.00,SE,141,7.0,13.0,57,0.00,,,-99.99,,2013-05-18 21:21:00,
2013-05-18 16:53:00,77.0,61.0,-100.00,SSE,152,9.0,14.0,57,0.00,,,-99.99,,2013-05-18 21:53:00,
2013-05-18 17:03:00,77.0,61.0,-100.00,SSE,152,9.0,14.0,57,0.00,,,-99.99,,2013-05-18 22:03:00,
2013-05-18 17:12:00,77.0,61.0,-100.00,SSE,152,9.0,14.0,57,0.00,,,-99.99,,2013-05-18 22:12:00,
2013-05-18 17:23:00,77.0,61.0,-100.00,SSE,152,9.0,14.0,57,0.00,,,-99.99,,2013-05-18 22:23:00,
2013-05-18 17:53:00,75.0,61.0,-100.00,SE,139,9.0,14.0,61,0.00,,,0.00,,2013-05-18 22:53:00,
2013-05-18 18:01:00,75.0,61.0,-100.00,SE,139,9.0,14.0,61,0.00,,,0.00,,2013-05-18 23:01:00,
2013-05-18 18:12:00,75.0,61.0,-100.00,SE,139,9.0,14.0,61,0.00,,,0.00,,2013-05-18 23:12:00,
2013-05-18 18:22:00,75.0,61.0,-100.00,SE,139,9.0,14.0,61,0.00,,,0.00,,2013-05-18 23:22:00,
2013-05-18 18:53:00,74.0,61.0,-100.00,SE,134,12.0,15.0,63,0.00,,,0.00,,2013-05-18 23:53:00,
2013-05-18 19:01:00,74.0,61.0,-100.00,SE,134,12.0,15.0,63,0.00,,,0.00,,2013-05-19 00:01:00,
2013-05-18 19:12:00,74.0,61.0,-100.00,SE,134,12.0,15.0,63,0.00,,,0.00,,2013-05-19 00:12:00,
2013-05-18 19:21:00,74.0,61.0,-100.00,SE,134,12.0,15.0,63,0.00,,,0.00,,2013-05-19 00:21:00,
2013-05-18 19:52:00,70.0,59.0,-100.00,SE,132,9.0,14.0,68,0.00,,,0.00,,2013-05-19 00:52:00,
2013-05-18 20:01:00,70.0,59.0,-100.00,SE,132,9.0,14.0,68,0.00,,,0.00,,2013-05-19 01:01:00,
2013-05-18 20:11:00,70.0,59.0,-100.00,SE,132,9.0,14.0,68,0.00,,,0.00,,2013-05-19 01:11:00,
2013-05-18 20:21:00,70.0,59.0,-100.00,SE,132,9.0,14.0,68,0.00,,,0.00,,2013-05-19 01:21:00,
2013-05-18 20:52:00,67.0,58.0,-100.00,SE,132,9.0,15.0,74,0.00,,,0.00,,2013-05-19 01:52:00,
2013-05-18 21:01:00,67.0,58.0,-100.00,SE,132,9.0,15.0,74,0.00,,,0.00,,2013-05-19 02:01:00,
2013-05-18 21:11:00,67.0,58.0,-100.00,SE,132,9.0,15.0,74,0.00,,,0.00,,2013-05-19 02:11:00,
2013-05-18 21:21:00,67.0,58.0,-100.00,SE,132,9.0,15.0,74,0.00,,,0.00,,2013-05-19 02:21:00,
2013-05-18 21:52:00,65.0,58.0,-100.00,SE,133,8.0,13.0,79,0.00,,,0.00,,2013-05-19 02:52:00,
2013-05-18 22:01:00,65.0,58.0,-100.00,SE,133,8.0,13.0,79,0.00,,,0.00,,2013-05-19 03:01:00,
2013-05-18 22:11:00,65.0,58.0,-100.00,SE,133,8.0,13.0,79,0.00,,,0.00,,2013-05-19 03:11:00,
2013-05-18 22:22:00,65.0,58.0,-100.00,SE,133,8.0,13.0,79,0.00,,,0.00,,2013-05-19 03:22:00,
2013-05-18 22:53:00,63.0,58.0,-100.00,SE,139,9.0,13.0,83,0.00,,,0.00,,2013-05-19 03:53:00,
2013-05-18 23:02:00,63.0,58.0,-100.00,SE,139,9.0,13.0,83,0.00,,,0.00,,2013-05-19 04:02:00,
2013-05-18 23:12:00,63.0,58.0,-100.00,SE,139,9.0,13.0,83,0.00,,,0.00,,2013-05-19 04:12:00,
2013-05-18 23:23:00,63.0,58.0,-100.00,SE,139,9.0,13.0,83,0.00,,,0.00,,2013-05-19 04:23:00,
2013-05-18 23:53:00,62.0,57.0,-100.00,SE,140,9.0,12.0,83,0.00,,,0.00,,2013-05-19 04:53:00,